Time;durP1;ratioP1;P1;durP2;ratioP2;P2;SDS_P1;SDS_P2;PMS_P1;PMS_P2;Temp;Humidity;BMP_temperature;BMP_pressure;BME280_temperature;BME280_humidity;BME280_pressure;Samples;Min_cycle;Max_cycle;Signal;HPM_P1;HPM_P2
2022/08/30 00:02:04;;;;;;;7.90;1.60;;;;;;;15.40;100.00;102391.06;4995018;28;20415;-92
2022/08/30 00:04:31;;;;;;;7.50;1.40;;;;;;;15.08;100.00;102334.91;4993868;28;20038;-92
2022/08/30 00:06:58;;;;;;;3.35;1.10;;;;;;;15.29;100.00;102345.69;4999856;28;20077;-92
2022/08/30 00:09:25;;;;;;;3.63;1.20;;;;;;;15.27;100.00;102360.72;5010280;28;20054;-92
2022/08/30 00:11:52;;;;;;;3.33;1.27;;;;;;;15.17;100.00;102345.19;4994494;28;20058;-92
2022/08/30 00:14:19;;;;;;;3.38;1.10;;;;;;;15.18;100.00;102344.25;4993534;28;20057;-92
2022/08/30 00:16:46;;;;;;;3.65;1.17;;;;;;;15.19;100.00;102356.56;5005012;28;20054;-91
2022/08/30 00:19:13;;;;;;;6.10;1.63;;;;;;;14.98;100.00;102339.59;5005542;28;20054;-92
2022/08/30 00:21:40;;;;;;;3.58;1.20;;;;;;;15.32;100.00;102403.66;4994744;28;20056;-92
2022/08/30 00:24:06;;;;;;;4.57;1.40;;;;;;;15.47;100.00;102404.94;4993522;28;20054;-92
2022/08/30 00:26:33;;;;;;;3.38;1.20;;;;;;;15.30;100.00;102394.94;4998468;28;20068;-92
2022/08/30 00:29:00;;;;;;;3.25;1.20;;;;;;;15.12;100.00;102351.50;5004405;28;20056;-92
2022/08/30 00:31:27;;;;;;;4.78;1.50;;;;;;;14.98;100.00;102349.31;5008144;28;20046;-92
2022/08/30 00:33:53;;;;;;;4.88;1.38;;;;;;;15.37;100.00;102415.81;5005712;28;20050;-92
2022/08/30 00:36:20;;;;;;;4.43;1.10;;;;;;;15.10;100.00;102374.44;5003303;28;20051;-92
2022/08/30 00:38:47;;;;;;;4.63;1.20;;;;;;;15.38;100.00;102388.47;5010518;28;20058;-92
2022/08/30 00:41:14;;;;;;;3.30;1.10;;;;;;;15.46;100.00;102379.50;5012909;28;20064;-92
2022/08/30 00:43:40;;;;;;;5.47;1.60;;;;;;;15.54;100.00;102417.03;5012320;28;20057;-92
2022/08/30 00:46:08;;;;;;;5.18;1.10;;;;;;;15.57;100.00;102422.22;4994464;28;20058;-91
2022/08/30 00:48:39;;;;;;;3.22;1.25;;;;;;;15.49;100.00;102400.47;5000407;28;20061;-91
2022/08/30 00:51:10;;;;;;;5.25;1.17;;;;;;;15.29;100.00;102386.13;4992999;28;20468;-92
2022/08/30 00:53:41;;;;;;;2.33;1.00;;;;;;;15.39;100.00;102394.66;4992391;28;20054;-92
2022/08/30 00:56:09;;;;;;;4.32;1.38;;;;;;;15.38;100.00;102388.47;4997390;28;20054;-92
2022/08/30 00:58:40;;;;;;;3.25;1.30;;;;;;;15.56;100.00;102423.13;5013084;28;20065;-92
2022/08/30 01:01:08;;;;;;;4.70;1.35;;;;;;;15.50;100.00;102408.34;5013044;28;20057;-92
2022/08/30 01:03:35;;;;;;;4.95;1.50;;;;;;;15.25;100.00;102381.88;5003940;28;20556;-91
2022/08/30 01:06:05;;;;;;;5.90;1.40;;;;;;;15.14;100.00;102379.56;5011233;28;20052;-93
2022/08/30 01:08:33;;;;;;;6.85;1.38;;;;;;;15.16;100.00;102384.81;5012480;28;20129;-92
2022/08/30 01:11:02;;;;;;;4.75;1.15;;;;;;;15.26;100.00;102409.13;4995233;28;20054;-92
2022/08/30 01:13:31;;;;;;;3.63;1.08;;;;;;;15.06;100.00;102384.22;4992307;28;20287;-94
2022/08/30 01:15:58;;;;;;;3.63;1.40;;;;;;;15.16;100.00;102367.19;5005054;28;20541;-92
2022/08/30 01:18:27;;;;;;;5.45;1.40;;;;;;;15.17;100.00;102381.25;5010192;28;20081;-92
2022/08/30 01:21:06;;;;;;;2.53;1.10;;;;;;;15.49;100.00;102414.56;5008734;28;20053;-92
2022/08/30 01:23:40;;;;;;;6.60;1.63;;;;;;;15.32;100.00;102415.06;4998766;28;20074;-92
2022/08/30 01:26:09;;;;;;;3.83;1.40;;;;;;;15.43;100.00;102412.09;5009517;28;20049;-92
2022/08/30 01:28:38;;;;;;;3.38;1.17;;;;;;;15.28;100.00;102420.47;5007725;28;20378;-92
2022/08/30 01:31:05;;;;;;;5.22;1.50;;;;;;;15.08;100.00;102394.72;4992360;28;20054;-91
2022/08/30 01:33:32;;;;;;;5.18;1.40;;;;;;;15.08;100.00;102392.06;4997180;28;20050;-91
2022/08/30 01:36:02;;;;;;;3.75;1.35;;;;;;;15.08;100.00;102385.03;5002356;28;20370;-90
2022/08/30 01:38:40;;;;;;;7.15;1.70;;;;;;;15.28;100.00;102412.56;5010871;28;20048;-91
2022/08/30 01:41:09;;;;;;;4.30;1.10;;;;;;;15.31;100.00;102407.19;5005276;28;20054;-91
2022/08/30 01:43:36;;;;;;;5.68;1.40;;;;;;;15.29;100.00;102401.97;4998813;28;20050;-92
2022/08/30 01:46:04;;;;;;;4.38;1.38;;;;;;;14.93;100.00;102364.41;4994830;28;20047;-91
2022/08/30 01:48:31;;;;;;;4.60;1.50;;;;;;;15.18;100.00;102404.09;5001232;28;20309;-92
2022/08/30 01:51:01;;;;;;;4.35;1.30;;;;;;;14.86;100.00;102373.41;5011519;28;20050;-91
2022/08/30 01:53:28;;;;;;;3.70;1.25;;;;;;;14.84;100.00;102328.63;5012054;28;20060;-91
2022/08/30 01:55:55;;;;;;;5.15;1.48;;;;;;;14.99;100.00;102377.38;4995933;28;20074;-91
2022/08/30 01:58:22;;;;;;;3.47;1.20;;;;;;;15.05;100.00;102390.41;4992589;28;20058;-90
2022/08/30 02:00:49;;;;;;;5.18;1.33;;;;;;;15.04;100.00;102385.19;4992178;28;20058;-90
2022/08/30 02:03:16;;;;;;;3.45;1.15;;;;;;;15.13;100.00;102391.03;4999632;28;20054;-90
2022/08/30 02:05:42;;;;;;;5.15;1.50;;;;;;;15.24;100.00;102389.84;4998872;28;20085;-93
2022/08/30 02:08:09;;;;;;;5.35;1.60;;;;;;;14.98;100.00;102395.00;5010698;28;20046;-92
2022/08/30 02:10:36;;;;;;;4.07;1.08;;;;;;;14.89;100.00;102362.75;5003824;28;20429;-91
2022/08/30 02:13:03;;;;;;;5.63;1.30;;;;;;;14.95;100.00;102366.06;4992595;28;20057;-91
2022/08/30 02:15:30;;;;;;;4.50;1.38;;;;;;;15.01;100.00;102365.00;4992363;28;20125;-91
2022/08/30 02:18:09;;;;;;;2.65;0.95;;;;;;;15.09;100.00;102389.41;5010332;28;20072;-92
2022/08/30 02:20:38;;;;;;;4.68;1.17;;;;;;;15.16;100.00;102396.22;5011441;28;20080;-91
2022/08/30 02:23:05;;;;;;;2.70;1.02;;;;;;;14.86;100.00;102368.13;4994429;28;20059;-91
2022/08/30 02:25:32;;;;;;;4.05;1.17;;;;;;;14.70;100.00;102334.31;4999151;28;20374;-92
2022/08/30 02:27:58;;;;;;;5.65;1.20;;;;;;;15.13;100.00;102393.66;5002222;28;20060;-91
2022/08/30 02:30:25;;;;;;;7.00;1.60;;;;;;;14.84;100.00;102391.03;5004825;28;20051;-92
2022/08/30 02:32:52;;;;;;;6.45;1.60;;;;;;;14.73;100.00;102355.31;4994097;28;20058;-91
2022/08/30 02:35:19;;;;;;;4.53;1.30;;;;;;;14.90;100.00;102359.22;4992179;28;20064;-91
2022/08/30 02:37:45;;;;;;;4.93;1.52;;;;;;;14.85;100.00;102363.75;4991752;28;20137;-92
2022/08/30 02:40:12;;;;;;;3.47;1.20;;;;;;;14.94;100.00;102397.75;5008607;28;20060;-92
2022/08/30 02:42:40;;;;;;;4.78;1.50;;;;;;;14.63;100.00;102364.38;5006714;28;20046;-92
2022/08/30 02:45:07;;;;;;;6.05;1.38;;;;;;;14.55;100.00;102369.81;5003748;28;20050;-92
2022/08/30 02:47:34;;;;;;;5.03;1.45;;;;;;;14.83;100.00;102374.34;5010749;28;20381;-91
2022/08/30 02:50:03;;;;;;;7.35;1.52;;;;;;;14.75;100.00;102361.41;5003663;28;20064;-92
2022/08/30 02:52:30;;;;;;;3.70;1.15;;;;;;;14.74;100.00;102364.94;4999261;28;20052;-92
2022/08/30 02:54:58;;;;;;;4.50;1.33;;;;;;;14.90;100.00;102396.97;5003997;28;20050;-92
2022/08/30 02:57:25;;;;;;;4.00;1.30;;;;;;;14.70;100.00;102387.03;5013839;28;20054;-91
2022/08/30 02:59:52;;;;;;;5.47;1.27;;;;;;;14.66;100.00;102381.88;4995562;28;20141;-91
2022/08/30 03:02:21;;;;;;;3.55;1.10;;;;;;;14.81;100.00;102395.47;5000851;28;20056;-91
2022/08/30 03:04:48;;;;;;;5.57;1.40;;;;;;;14.78;100.00;102376.25;5003481;28;20076;-92
2022/08/30 03:07:16;;;;;;;4.90;1.63;;;;;;;14.85;100.00;102380.44;4998945;28;20054;-91
2022/08/30 03:09:43;;;;;;;6.15;1.52;;;;;;;14.88;100.00;102403.22;5009097;28;20046;-92
2022/08/30 03:12:11;;;;;;;5.68;1.63;;;;;;;14.76;100.00;102371.00;5008680;28;20042;-91
2022/08/30 03:14:38;;;;;;;4.03;1.30;;;;;;;15.03;100.00;102409.81;5001188;28;20334;-91
2022/08/30 03:17:07;;;;;;;4.45;1.20;;;;;;;15.08;100.00;102408.75;5004120;28;20050;-92
2022/08/30 03:19:41;;;;;;;3.53;1.20;;;;;;;14.90;100.00;102396.13;4994852;28;20046;-92
2022/08/30 03:22:09;;;;;;;5.03;1.40;;;;;;;14.68;100.00;102351.06;5010936;28;20054;-91
2022/08/30 03:24:36;;;;;;;4.20;1.20;;;;;;;14.94;100.00;102396.00;5005307;28;20507;-92
2022/08/30 03:27:03;;;;;;;6.13;1.50;;;;;;;14.74;100.00;102399.19;4994746;28;20481;-91
2022/08/30 03:29:29;;;;;;;4.20;1.10;;;;;;;14.92;100.00;102408.34;5006418;28;20400;-90
2022/08/30 03:31:56;;;;;;;3.45;1.33;;;;;;;14.86;100.00;102395.34;5004524;28;20052;-91
2022/08/30 03:34:25;;;;;;;4.28;1.27;;;;;;;14.94;100.00;102400.41;4993732;28;20163;-91
2022/08/30 03:36:53;;;;;;;6.43;1.73;;;;;;;14.91;100.00;102400.47;5001036;28;20050;-91
2022/08/30 03:39:22;;;;;;;5.40;1.42;;;;;;;14.85;100.00;102411.22;4994067;28;20603;-92
2022/08/30 03:41:49;;;;;;;4.63;1.30;;;;;;;14.79;100.00;102385.91;5010255;28;20048;-91
2022/08/30 03:44:17;;;;;;;5.68;1.63;;;;;;;14.59;100.00;102365.38;5012973;28;20075;-92
2022/08/30 03:46:44;;;;;;;4.20;1.25;;;;;;;14.76;100.00;102389.47;4997172;28;20043;-91
2022/08/30 03:49:11;;;;;;;5.80;1.20;;;;;;;14.82;100.00;102412.19;4994231;28;20169;-91
2022/08/30 03:51:38;;;;;;;5.03;1.67;;;;;;;14.63;100.00;102409.19;4994236;28;20412;-91
2022/08/30 03:54:05;;;;;;;5.97;1.30;;;;;;;14.49;100.00;102380.56;5008836;28;20049;-92
2022/08/30 03:56:32;;;;;;;3.88;1.27;;;;;;;14.42;100.00;102389.53;4993831;28;20042;-91
2022/08/30 03:58:58;;;;;;;4.82;1.30;;;;;;;14.47;100.00;102400.81;4993593;28;20050;-94
2022/08/30 04:01:25;;;;;;;5.85;1.50;;;;;;;14.48;100.00;102389.34;5004560;28;20060;-91
2022/08/30 04:03:52;;;;;;;5.63;1.40;;;;;;;14.21;100.00;102381.28;4994313;28;20060;-91
2022/08/30 04:06:19;;;;;;;6.07;1.60;;;;;;;14.42;100.00;102411.47;5005314;28;20049;-92
2022/08/30 04:08:46;;;;;;;3.88;1.40;;;;;;;14.41;100.00;102391.31;5010090;28;20054;-92
2022/08/30 04:11:15;;;;;;;3.88;1.38;;;;;;;14.33;100.00;102376.63;4998917;28;20060;-92
2022/08/30 04:13:43;;;;;;;5.88;1.40;;;;;;;14.73;100.00;102409.78;5000554;28;20121;-92
2022/08/30 04:16:10;;;;;;;6.43;1.58;;;;;;;14.34;100.00;102376.59;4998596;28;20046;-92
2022/08/30 04:18:37;;;;;;;4.88;1.20;;;;;;;14.29;100.00;102354.75;4994621;28;20057;-92
2022/08/30 04:21:04;;;;;;;4.97;1.50;;;;;;;14.47;100.00;102416.63;4993370;28;20077;-93
2022/08/30 04:23:31;;;;;;;5.45;1.58;;;;;;;14.45;100.00;102407.91;5006613;28;20064;-91
2022/08/30 04:25:58;;;;;;;4.45;1.48;;;;;;;14.10;100.00;102354.38;4994163;28;20045;-93
2022/08/30 04:28:25;;;;;;;5.55;1.77;;;;;;;14.21;100.00;102393.59;5009544;28;20471;-92
2022/08/30 04:30:51;;;;;;;5.93;1.45;;;;;;;14.05;100.00;102375.56;5006000;28;20415;-92
2022/08/30 04:33:18;;;;;;;4.15;1.38;;;;;;;14.27;100.00;102411.91;5010861;28;20049;-92
2022/08/30 04:35:48;;;;;;;8.00;1.50;;;;;;;14.46;100.00;102443.03;5012570;28;20041;-92
2022/08/30 04:38:16;;;;;;;5.10;1.40;;;;;;;14.44;100.00;102440.44;4992650;28;20509;-92
2022/08/30 04:40:47;;;;;;;4.93;1.90;;;;;;;14.22;100.00;102412.00;5011711;28;20064;-92
2022/08/30 04:43:15;;;;;;;8.02;1.73;;;;;;;14.34;100.00;102413.47;5012688;28;20283;-93
2022/08/30 04:45:42;;;;;;;4.10;1.33;;;;;;;14.34;100.00;102402.03;5013058;28;20042;-93
2022/08/30 04:48:09;;;;;;;3.80;1.33;;;;;;;14.30;100.00;102417.06;5012291;28;20058;-92
2022/08/30 04:50:36;;;;;;;4.70;1.30;;;;;;;14.26;100.00;102417.22;4998194;28;20060;-92
2022/08/30 04:53:02;;;;;;;4.55;1.60;;;;;;;14.37;100.00;102439.72;4993218;28;20050;-92
2022/08/30 04:55:29;;;;;;;3.33;1.30;;;;;;;14.24;100.00;102419.88;4993606;28;20047;-93
2022/08/30 04:57:56;;;;;;;5.05;1.33;;;;;;;14.30;100.00;102400.41;5003662;28;20137;-92
2022/08/30 05:00:23;;;;;;;4.95;1.52;;;;;;;14.44;100.00;102441.28;4993450;28;20395;-93
2022/08/30 05:02:49;;;;;;;3.20;1.10;;;;;;;14.68;100.00;102453.88;5006756;28;20745;-92
2022/08/30 05:08:02;;;;;;;4.15;1.40;;;;;;;14.54;100.00;102439.28;4998938;28;20061;-94
2022/08/30 05:10:29;;;;;;;3.53;1.30;;;;;;;14.20;100.00;102418.22;5010499;28;20456;-90
2022/08/30 05:12:56;;;;;;;4.30;1.33;;;;;;;14.36;100.00;102430.09;4998985;28;20050;-93
2022/08/30 05:15:23;;;;;;;2.67;1.02;;;;;;;14.25;100.00;102400.50;5012450;28;20056;-93
2022/08/30 05:17:50;;;;;;;3.97;1.50;;;;;;;14.37;100.00;102423.03;5009510;28;20076;-92
2022/08/30 05:20:17;;;;;;;4.07;1.55;;;;;;;14.12;100.00;102418.41;5002490;28;20050;-92
2022/08/30 05:22:50;;;;;;;5.07;1.40;;;;;;;14.40;100.00;102451.97;5008959;28;20076;-92
2022/08/30 05:25:25;;;;;;;3.15;1.27;;;;;;;14.43;100.00;102447.47;4999982;28;20802;-93
2022/08/30 05:27:53;;;;;;;4.28;1.25;;;;;;;14.03;100.00;102397.59;5003679;28;20056;-91
2022/08/30 05:30:20;;;;;;;3.90;1.30;;;;;;;14.25;100.00;102453.22;5009220;28;20527;-93
2022/08/30 05:32:47;;;;;;;5.70;1.40;;;;;;;14.20;100.00;102442.81;5007697;28;20063;-90
2022/08/30 05:35:15;;;;;;;2.65;1.08;;;;;;;14.05;100.00;102401.03;5008747;28;20140;-90
2022/08/30 05:37:42;;;;;;;8.73;1.60;;;;;;;14.20;100.00;102428.75;5000534;28;20129;-91
2022/08/30 05:40:10;;;;;;;4.82;1.50;;;;;;;14.46;100.00;102477.28;5007446;28;20050;-92
2022/08/30 05:42:40;;;;;;;5.80;1.20;;;;;;;14.33;100.00;102442.50;5006477;28;20121;-91
2022/08/30 05:45:08;;;;;;;4.00;1.20;;;;;;;14.05;100.00;102419.47;5004943;28;20042;-92
2022/08/30 05:47:36;;;;;;;7.07;1.75;;;;;;;14.44;100.00;102480.81;5000761;28;20060;-89
2022/08/30 05:50:05;;;;;;;2.75;1.10;;;;;;;14.22;100.00;102477.88;5007631;28;20056;-91
2022/08/30 05:52:37;;;;;;;3.97;1.20;;;;;;;14.42;100.00;102460.69;5008507;28;20068;-91
2022/08/30 05:55:06;;;;;;;2.55;1.10;;;;;;;14.70;100.00;102483.72;5006097;28;20068;-90
2022/08/30 05:57:35;;;;;;;2.97;1.13;;;;;;;14.51;100.00;102465.72;5006383;28;20484;-90
2022/08/30 06:00:06;;;;;;;5.20;1.42;;;;;;;14.52;100.00;102483.25;5006737;28;20088;-88
2022/08/30 06:02:33;;;;;;;4.47;1.23;;;;;;;14.46;100.00;102464.09;5010102;28;20050;-88
2022/08/30 06:05:03;;;;;;;4.97;1.67;;;;;;;14.60;100.00;102469.91;4999895;28;20619;-91
2022/08/30 06:07:31;;;;;;;2.63;1.10;;;;;;;14.66;100.00;102471.50;5007016;28;20046;-92
2022/08/30 06:09:58;;;;;;;3.28;1.10;;;;;;;14.51;100.00;102470.97;5005479;28;20061;-92
2022/08/30 06:12:26;;;;;;;3.83;1.20;;;;;;;14.66;100.00;102468.88;5016629;28;20113;-92
2022/08/30 06:15:07;;;;;;;1.63;0.98;;;;;;;14.66;100.00;102447.78;5008775;28;20111;-91
2022/08/30 06:17:35;;;;;;;2.65;1.05;;;;;;;14.78;100.00;102466.78;5011614;28;20054;-92
2022/08/30 06:20:02;;;;;;;4.40;1.30;;;;;;;13.74;100.00;102356.19;5016199;28;20054;-93
2022/08/30 06:22:30;;;;;;;5.40;1.52;;;;;;;14.21;100.00;102435.75;5015767;28;20070;-92
2022/08/30 06:24:59;;;;;;;3.70;1.30;;;;;;;14.38;100.00;102461.69;5012086;28;20138;-92
2022/08/30 06:27:26;;;;;;;4.97;1.15;;;;;;;14.35;100.00;102461.75;5014216;28;20121;-94
2022/08/30 06:30:09;;;;;;;5.65;1.55;;;;;;;14.52;100.00;102456.03;5015923;28;20117;-91
2022/08/30 06:32:37;;;;;;;3.25;1.20;;;;;;;14.71;100.00;102488.91;5019003;28;20084;-92
2022/08/30 06:35:06;;;;;;;2.40;1.10;;;;;;;14.80;100.00;102493.97;5011058;28;20073;-91
2022/08/30 06:37:33;;;;;;;2.80;1.05;;;;;;;14.61;100.00;102450.56;5014536;28;20067;-89
2022/08/30 06:40:02;;;;;;;3.75;0.98;;;;;;;15.08;100.00;102487.03;5019697;28;20050;-92
2022/08/30 06:42:32;;;;;;;4.10;1.13;;;;;;;15.15;100.00;102484.16;5016484;28;20109;-90
2022/08/30 06:45:00;;;;;;;3.83;1.30;;;;;;;14.77;100.00;102441.31;5012887;28;20148;-90
2022/08/30 06:47:28;;;;;;;3.25;1.10;;;;;;;14.79;100.00;102433.34;5006533;28;20441;-92
2022/08/30 06:49:57;;;;;;;3.60;1.02;;;;;;;14.92;100.00;102434.72;5014873;28;20400;-92
2022/08/30 06:52:38;;;;;;;3.50;1.10;;;;;;;15.43;100.00;102477.22;5009298;28;20057;-90
2022/08/30 06:55:05;;;;;;;6.40;1.38;;;;;;;15.21;100.00;102455.88;5019682;28;20050;-90
2022/08/30 06:57:32;;;;;;;3.65;1.10;;;;;;;15.34;100.00;102466.03;5016762;28;20048;-91
2022/08/30 07:00:01;;;;;;;3.30;1.05;;;;;;;15.03;100.00;102442.31;5008973;28;20050;-91
2022/08/30 07:02:28;;;;;;;4.82;1.30;;;;;;;15.33;100.00;102498.63;5019398;28;20078;-90
2022/08/30 07:04:55;;;;;;;3.10;1.23;;;;;;;15.07;100.00;102464.19;5016737;28;20134;-91
2022/08/30 07:07:22;;;;;;;2.80;1.02;;;;;;;15.30;100.00;102474.09;5005134;28;20050;-91
2022/08/30 07:09:50;;;;;;;3.13;1.05;;;;;;;15.69;100.00;102495.78;5014599;28;20046;-91
2022/08/30 07:12:17;;;;;;;4.10;1.15;;;;;;;15.80;100.00;102476.13;5006342;28;20251;-92
2022/08/30 07:14:44;;;;;;;2.13;0.90;;;;;;;15.82;100.00;102479.59;5009207;28;20046;-91
2022/08/30 07:20:01;;;;;;;4.55;1.05;;;;;;;15.69;100.00;102457.94;5007834;28;20085;-92
2022/08/30 07:22:33;;;;;;;2.10;1.13;;;;;;;15.47;100.00;102478.84;5011972;28;20081;-91
2022/08/30 07:25:00;;;;;;;2.65;1.05;;;;;;;15.45;100.00;102488.59;5011708;28;20061;-91
2022/08/30 07:27:30;;;;;;;4.88;1.20;;;;;;;15.30;100.00;102466.19;5013840;28;20085;-92
2022/08/30 07:29:59;;;;;;;3.17;1.00;;;;;;;15.62;100.00;102503.94;5024951;28;20084;-92
2022/08/30 07:32:40;;;;;;;2.45;0.90;;;;;;;15.41;100.00;102505.47;5010820;28;20066;-91
2022/08/30 07:35:08;;;;;;;3.95;1.00;;;;;;;15.45;100.00;102478.91;5005968;28;20074;-92
2022/08/30 07:37:35;;;;;;;2.30;1.10;;;;;;;15.37;100.00;102484.41;5005206;28;20126;-91
2022/08/30 07:40:07;;;;;;;4.10;1.35;;;;;;;15.56;100.00;102455.69;5006537;28;20050;-91
2022/08/30 07:42:43;;;;;;;3.25;1.20;;;;;;;15.48;100.00;102485.88;5010521;28;20064;-91
2022/08/30 07:45:11;;;;;;;3.22;1.15;;;;;;;15.26;100.00;102475.09;5009566;28;20062;-91
2022/08/30 07:47:40;;;;;;;3.03;1.27;;;;;;;15.54;100.00;102510.28;5014063;28;20101;-92
2022/08/30 07:50:10;;;;;;;6.78;1.33;;;;;;;15.47;100.00;102448.03;5016646;28;20121;-92
2022/08/30 07:52:38;;;;;;;4.53;1.25;;;;;;;15.57;100.00;102493.50;5004767;28;20042;-92
2022/08/30 07:55:07;;;;;;;5.88;1.23;;;;;;;15.53;100.00;102490.09;5014792;28;20050;-92
2022/08/30 07:57:48;;;;;;;4.22;1.13;;;;;;;15.18;100.00;102455.06;5018567;28;20053;-92
2022/08/30 08:00:15;;;;;;;2.58;1.13;;;;;;;15.59;100.00;102470.56;5005985;28;20057;-91
2022/08/30 08:02:47;;;;;;;5.53;1.10;;;;;;;15.67;100.00;102504.63;5016535;28;20046;-93
2022/08/30 08:05:27;;;;;;;2.47;1.00;;;;;;;15.47;100.00;102500.84;5009545;28;20129;-90
2022/08/30 08:08:09;;;;;;;4.95;1.40;;;;;;;15.05;100.00;102466.03;5012952;28;20492;-93
2022/08/30 08:10:50;;;;;;;2.95;1.13;;;;;;;15.56;100.00;102476.81;5008991;28;20508;-92
2022/08/30 08:13:19;;;;;;;2.85;0.90;;;;;;;15.71;100.00;102504.50;5009529;28;20116;-92
2022/08/30 08:15:47;;;;;;;2.58;0.90;;;;;;;15.86;95.04;102504.97;5027775;28;20109;-93
2022/08/30 08:18:27;;;;;;;5.30;1.20;;;;;;;15.76;98.87;102491.22;5024041;28;20042;-92
2022/08/30 08:20:55;;;;;;;3.22;1.10;;;;;;;15.41;99.93;102453.53;5021453;28;20104;-93
2022/08/30 08:23:37;;;;;;;1.67;0.93;;;;;;;15.72;93.02;102494.81;5020861;28;20042;-92
2022/08/30 08:26:19;;;;;;;3.90;1.10;;;;;;;15.91;94.66;102522.41;5012023;28;20052;-94
2022/08/30 08:29:00;;;;;;;2.63;1.00;;;;;;;15.64;91.51;102502.13;5022214;28;20448;-93
2022/08/30 08:31:40;;;;;;;3.15;1.02;;;;;;;15.63;94.58;102518.84;5008814;28;20050;-93
2022/08/30 08:34:22;;;;;;;3.40;0.93;;;;;;;15.28;95.47;102481.19;5015494;28;20050;-93
2022/08/30 08:37:03;;;;;;;2.22;1.08;;;;;;;15.98;94.82;102516.94;5019145;28;20046;-92
2022/08/30 08:39:43;;;;;;;2.17;0.88;;;;;;;15.96;91.14;102495.00;5023908;28;20069;-93
2022/08/30 08:42:47;;;;;;;7.72;1.65;;;;;;;16.00;92.46;102488.69;5009825;28;20054;-92
2022/08/30 08:45:34;;;;;;;2.90;1.10;;;;;;;16.26;91.86;102527.47;5018435;28;20076;-93
2022/08/30 08:48:29;;;;;;;2.88;0.90;;;;;;;15.76;90.01;102459.50;5022160;28;20057;-93
2022/08/30 08:54:18;;;;;;;4.22;1.20;;;;;;;16.21;88.65;102530.25;5019064;28;20050;-93
2022/08/30 08:56:59;;;;;;;2.28;0.80;;;;;;;16.38;88.11;102508.56;5026776;28;20117;-93
2022/08/30 08:59:42;;;;;;;2.67;1.02;;;;;;;16.44;86.61;102518.91;5017963;28;20042;-90
2022/08/30 09:02:25;;;;;;;3.27;1.40;;;;;;;16.32;88.85;102499.06;5000792;28;20057;-93
2022/08/30 09:05:08;;;;;;;1.67;0.85;;;;;;;16.42;85.04;102506.69;5020500;28;20050;-94
2022/08/30 09:07:56;;;;;;;1.75;0.80;;;;;;;16.86;87.71;102526.31;5012160;28;20081;-92
2022/08/30 09:10:38;;;;;;;1.38;0.80;;;;;;;16.70;83.57;102493.38;5013191;28;20046;-94
2022/08/30 09:13:19;;;;;;;2.58;1.00;;;;;;;16.83;80.16;102486.72;5011568;28;20034;-92
2022/08/30 09:16:00;;;;;;;3.25;1.20;;;;;;;17.03;81.96;102498.38;5011358;28;20050;-93
2022/08/30 09:18:43;;;;;;;3.53;1.20;;;;;;;16.93;77.80;102526.97;5014352;28;20096;-92
2022/08/30 09:21:27;;;;;;;3.67;1.20;;;;;;;16.61;78.22;102502.47;5017828;28;20050;-90
2022/08/30 09:24:10;;;;;;;3.25;1.10;;;;;;;16.91;82.29;102525.28;5008956;28;20124;-92
2022/08/30 09:26:38;;;;;;;2.17;1.10;;;;;;;17.01;75.80;102526.66;5026109;28;20061;-95
2022/08/30 09:29:22;;;;;;;3.35;1.13;;;;;;;17.03;76.26;102535.41;5034105;28;20145;-94
2022/08/30 09:32:04;;;;;;;3.90;1.20;;;;;;;17.07;79.18;102529.13;5034638;28;20041;-93
2022/08/30 09:34:46;;;;;;;3.88;1.35;;;;;;;17.04;75.50;102505.41;5019401;28;20041;-92
2022/08/30 09:37:50;;;;;;;5.32;1.40;;;;;;;17.15;75.73;102532.31;5016427;28;20046;-94
2022/08/30 09:40:27;;;;;;;4.45;1.30;;;;;;;17.12;77.71;102543.00;5009475;28;20073;-93
2022/08/30 09:43:05;;;;;;;3.03;1.30;;;;;;;17.16;76.97;102538.50;5014725;28;20133;-91
2022/08/30 09:46:01;;;;;;;3.75;1.20;;;;;;;17.17;75.50;102537.56;5026015;28;20053;-96
2022/08/30 09:49:21;;;;;;;4.18;1.50;;;;;;;17.34;73.45;102527.22;5018021;28;20145;-95
2022/08/30 09:52:30;;;;;;;3.05;1.30;;;;;;;17.59;74.14;102543.03;5016641;28;20062;-95
2022/08/30 09:56:05;;;;;;;7.97;1.70;;;;;;;17.33;72.60;102528.13;5016862;28;20038;-96
2022/08/30 10:02:40;;;;;;;4.97;1.38;;;;;;;17.19;77.46;102541.91;5025198;28;20041;-96
2022/08/30 10:05:42;;;;;;;5.93;1.38;;;;;;;17.03;76.36;102538.94;5135870;23;20045;-89
2022/08/30 10:08:18;;;;;;;5.10;1.50;;;;;;;17.20;77.31;102533.03;5039841;28;20057;-95
2022/08/30 10:11:07;;;;;;;2.83;1.23;;;;;;;17.10;73.95;102534.28;5039881;28;20058;-93
2022/08/30 10:14:35;;;;;;;4.40;1.48;;;;;;;17.06;77.42;102541.47;5018359;28;20049;-95
2022/08/30 10:17:37;;;;;;;2.83;1.10;;;;;;;17.32;77.64;102546.75;5045672;28;20056;-95
2022/08/30 10:20:37;;;;;;;3.53;1.27;;;;;;;17.15;74.35;102536.75;5044292;28;20050;-95
2022/08/30 10:23:30;;;;;;;4.03;1.30;;;;;;;17.19;78.43;102530.44;5054305;28;20056;-95
2022/08/30 10:26:24;;;;;;;2.73;1.13;;;;;;;17.60;77.00;102543.88;5046956;28;20090;-95
2022/08/30 10:29:18;;;;;;;3.72;0.90;;;;;;;17.46;75.93;102539.13;5060071;28;20049;-95
2022/08/30 10:32:10;;;;;;;1.88;1.00;;;;;;;17.41;76.36;102535.78;5044191;28;20048;-95
2022/08/30 10:35:21;;;;;;;3.83;1.20;;;;;;;17.40;76.45;102499.63;5026377;28;20042;-95
2022/08/30 10:38:07;;;;;;;3.25;1.08;;;;;;;17.29;75.90;102526.53;5040146;28;20295;-95
2022/08/30 10:41:14;;;;;;;2.85;1.00;;;;;;;17.29;77.43;102539.75;5026228;28;20026;-96
2022/08/30 10:44:06;;;;;;;6.53;1.35;;;;;;;17.20;79.02;102548.91;5041022;28;20033;-96
2022/08/30 10:47:20;;;;;;;3.50;1.08;;;;;;;17.24;78.67;102553.16;5040186;28;20026;-96
2022/08/30 10:50:08;;;;;;;3.75;1.33;;;;;;;17.24;81.12;102558.44;5040427;28;20093;-96
2022/08/30 10:52:53;;;;;;;3.50;1.13;;;;;;;17.32;82.06;102555.53;5040793;28;20045;-95
2022/08/30 10:56:09;;;;;;;3.40;1.00;;;;;;;16.86;83.08;102542.19;5039833;28;20030;-96
2022/08/30 10:58:57;;;;;;;5.57;1.40;;;;;;;16.80;86.01;102541.50;5038273;28;20030;-96
2022/08/30 11:02:08;;;;;;;2.45;1.00;;;;;;;17.13;86.06;102550.03;5040112;28;20057;-95
2022/08/30 11:05:27;;;;;;;3.92;1.10;;;;;;;17.07;88.36;102542.34;5040399;28;20045;-93
2022/08/30 11:08:43;;;;;;;4.50;1.00;;;;;;;17.30;86.52;102537.97;5039028;28;20045;-94
2022/08/30 11:11:48;;;;;;;2.83;0.82;;;;;;;17.15;87.13;102542.06;5037190;28;20033;-92
2022/08/30 11:14:30;;;;;;;2.58;0.98;;;;;;;17.23;85.64;102538.22;5047025;28;20408;-95
2022/08/30 11:17:37;;;;;;;3.33;1.25;;;;;;;17.22;83.28;102532.97;5037607;28;20077;-94
2022/08/30 11:20:56;;;;;;;1.83;0.80;;;;;;;17.37;82.08;102520.94;5053076;28;20033;-94
2022/08/30 11:23:37;;;;;;;2.03;0.95;;;;;;;17.32;80.04;102512.31;5051941;28;20097;-92
2022/08/30 11:26:49;;;;;;;1.80;0.90;;;;;;;17.58;77.43;102524.53;5035607;28;20034;-96
2022/08/30 11:29:40;;;;;;;8.45;1.02;;;;;;;17.31;77.94;102494.69;5041688;28;20057;-95
2022/08/30 11:32:16;;;;;;;2.63;0.90;;;;;;;17.70;76.26;102524.06;5021335;28;20072;-95
2022/08/30 11:34:45;;;;;;;3.95;1.02;;;;;;;17.65;75.90;102539.28;5033810;28;20054;-93
2022/08/30 11:37:12;;;;;;;1.88;0.98;;;;;;;17.78;75.86;102529.94;5022209;28;20056;-94
2022/08/30 11:39:52;;;;;;;4.50;1.33;;;;;;;17.60;77.17;102498.84;5015057;28;20053;-94
2022/08/30 11:42:30;;;;;;;3.78;0.90;;;;;;;17.44;79.29;102538.31;5023883;28;20050;-93
2022/08/30 11:45:22;;;;;;;2.15;0.90;;;;;;;17.52;74.50;102530.09;5014588;28;20502;-93
2022/08/30 11:47:56;;;;;;;3.33;1.05;;;;;;;17.42;76.20;102534.84;5026019;28;20061;-93
2022/08/30 11:50:53;;;;;;;4.32;1.20;;;;;;;17.77;74.61;102543.25;5024405;28;20045;-93
2022/08/30 11:53:26;;;;;;;3.00;1.00;;;;;;;17.70;74.61;102533.81;5015468;28;20049;-94
2022/08/30 11:56:07;;;;;;;4.28;1.30;;;;;;;17.45;77.22;102545.34;5024628;28;20075;-93
2022/08/30 11:58:52;;;;;;;1.88;0.90;;;;;;;17.44;76.03;102539.19;5025667;28;20045;-92
2022/08/30 12:01:25;;;;;;;3.00;1.15;;;;;;;17.63;77.97;102539.31;5019949;28;20060;-93
2022/08/30 12:04:26;;;;;;;4.07;0.90;;;;;;;17.51;75.47;102510.69;5018116;28;20060;-92
2022/08/30 12:06:59;;;;;;;1.83;0.88;;;;;;;17.48;79.31;102513.47;5014896;28;20046;-92